sensor_id;sensor_type;location;lat;lon;timestamp;temperature;humidity
41060;DHT22;26811;53.160;8.202;2023-02-28T00:03:10;4.20;99.90
41060;DHT22;26811;53.160;8.202;2023-02-28T00:08:10;4.20;99.90
41060;DHT22;26811;53.160;8.202;2023-02-28T00:13:11;4.10;99.90
41060;DHT22;26811;53.160;8.202;2023-02-28T00:18:13;4.10;99.90
41060;DHT22;26811;53.160;8.202;2023-02-28T00:23:14;4.10;99.90
41060;DHT22;26811;53.160;8.202;2023-02-28T00:28:14;4.10;99.90
41060;DHT22;26811;53.160;8.202;2023-02-28T00:33:15;4.10;99.90
41060;DHT22;26811;53.160;8.202;2023-02-28T00:38:15;4.10;99.90
41060;DHT22;26811;53.160;8.202;2023-02-28T00:43:16;4.10;99.90
41060;DHT22;26811;53.160;8.202;2023-02-28T00:48:16;4.10;99.90
41060;DHT22;26811;53.160;8.202;2023-02-28T00:53:17;4.10;99.90
41060;DHT22;26811;53.160;8.202;2023-02-28T00:58:18;4.00;99.90
41060;DHT22;26811;53.160;8.202;2023-02-28T01:03:19;4.00;99.90
41060;DHT22;26811;53.160;8.202;2023-02-28T01:08:20;4.00;99.90
41060;DHT22;26811;53.160;8.202;2023-02-28T01:13:21;4.00;99.90
41060;DHT22;26811;53.160;8.202;2023-02-28T01:18:23;4.00;99.90
41060;DHT22;26811;53.160;8.202;2023-02-28T01:23:24;4.00;99.90
41060;DHT22;26811;53.160;8.202;2023-02-28T01:28:25;4.00;99.90
41060;DHT22;26811;53.160;8.202;2023-02-28T01:33:26;4.00;99.90
41060;DHT22;26811;53.160;8.202;2023-02-28T01:38:27;4.00;99.90
41060;DHT22;26811;53.160;8.202;2023-02-28T01:49:09;4.00;99.90
41060;DHT22;26811;53.160;8.202;2023-02-28T01:54:15;3.90;99.90
41060;DHT22;26811;53.160;8.202;2023-02-28T01:59:36;3.90;99.90
41060;DHT22;26811;53.160;8.202;2023-02-28T02:04:51;3.90;99.90
41060;DHT22;26811;53.160;8.202;2023-02-28T02:10:25;3.90;99.90
41060;DHT22;26811;53.160;8.202;2023-02-28T02:26:28;3.90;99.90
41060;DHT22;26811;53.160;8.202;2023-02-28T02:37:36;3.80;99.90
41060;DHT22;26811;53.160;8.202;2023-02-28T02:47:39;3.80;99.90
41060;DHT22;26811;53.160;8.202;2023-02-28T02:52:44;3.80;99.90
41060;DHT22;26811;53.160;8.202;2023-02-28T02:57:55;3.90;99.90
41060;DHT22;26811;53.160;8.202;2023-02-28T03:02:58;3.80;99.90
41060;DHT22;26811;53.160;8.202;2023-02-28T03:07:59;3.80;99.90
41060;DHT22;26811;53.160;8.202;2023-02-28T03:18:53;3.80;99.90
41060;DHT22;26811;53.160;8.202;2023-02-28T03:24:15;3.80;99.90
41060;DHT22;26811;53.160;8.202;2023-02-28T03:29:33;3.80;99.90
41060;DHT22;26811;53.160;8.202;2023-02-28T03:34:41;3.80;99.90
41060;DHT22;26811;53.160;8.202;2023-02-28T03:40:13;3.80;99.90
41060;DHT22;26811;53.160;8.202;2023-02-28T03:45:35;3.80;99.90
41060;DHT22;26811;53.160;8.202;2023-02-28T03:50:39;3.80;99.90
41060;DHT22;26811;53.160;8.202;2023-02-28T03:55:45;3.70;99.90
41060;DHT22;26811;53.160;8.202;2023-02-28T04:01:03;3.70;99.90
41060;DHT22;26811;53.160;8.202;2023-02-28T04:06:15;3.70;99.90
41060;DHT22;26811;53.160;8.202;2023-02-28T04:11:24;3.60;99.90
41060;DHT22;26811;53.160;8.202;2023-02-28T04:16:27;3.60;99.90
41060;DHT22;26811;53.160;8.202;2023-02-28T04:21:29;3.60;99.90
41060;DHT22;26811;53.160;8.202;2023-02-28T04:26:34;3.60;99.90
41060;DHT22;26811;53.160;8.202;2023-02-28T04:31:35;3.60;99.90
41060;DHT22;26811;53.160;8.202;2023-02-28T04:36:36;3.60;99.90
41060;DHT22;26811;53.160;8.202;2023-02-28T04:41:36;3.70;99.90
41060;DHT22;26811;53.160;8.202;2023-02-28T04:46:37;3.70;99.90
41060;DHT22;26811;53.160;8.202;2023-02-28T04:51:37;3.70;99.90
41060;DHT22;26811;53.160;8.202;2023-02-28T04:56:38;3.60;99.90
41060;DHT22;26811;53.160;8.202;2023-02-28T05:01:38;3.60;99.90
41060;DHT22;26811;53.160;8.202;2023-02-28T05:06:39;3.70;99.90
41060;DHT22;26811;53.160;8.202;2023-02-28T05:11:40;3.60;99.90
41060;DHT22;26811;53.160;8.202;2023-02-28T05:16:41;3.60;99.90
41060;DHT22;26811;53.160;8.202;2023-02-28T05:21:53;3.60;99.90
41060;DHT22;26811;53.160;8.202;2023-02-28T05:26:54;3.60;99.90
41060;DHT22;26811;53.160;8.202;2023-02-28T05:31:55;3.50;99.90
41060;DHT22;26811;53.160;8.202;2023-02-28T05:36:55;3.40;99.90
41060;DHT22;26811;53.160;8.202;2023-02-28T05:41:56;3.30;99.90
41060;DHT22;26811;53.160;8.202;2023-02-28T05:46:56;3.10;99.90
41060;DHT22;26811;53.160;8.202;2023-02-28T05:51:57;2.90;99.90
41060;DHT22;26811;53.160;8.202;2023-02-28T05:56:57;2.80;99.90
41060;DHT22;26811;53.160;8.202;2023-02-28T06:01:58;2.70;99.90
41060;DHT22;26811;53.160;8.202;2023-02-28T06:06:58;2.80;99.90
41060;DHT22;26811;53.160;8.202;2023-02-28T06:12:00;2.90;99.90
41060;DHT22;26811;53.160;8.202;2023-02-28T06:17:04;2.90;99.90
41060;DHT22;26811;53.160;8.202;2023-02-28T06:22:04;2.90;99.90
41060;DHT22;26811;53.160;8.202;2023-02-28T06:27:05;2.90;99.90
41060;DHT22;26811;53.160;8.202;2023-02-28T06:32:11;3.00;99.90
41060;DHT22;26811;53.160;8.202;2023-02-28T06:37:12;3.00;99.90
41060;DHT22;26811;53.160;8.202;2023-02-28T06:42:13;3.00;99.90
41060;DHT22;26811;53.160;8.202;2023-02-28T06:47:13;3.10;99.90
41060;DHT22;26811;53.160;8.202;2023-02-28T06:52:14;3.20;99.90
41060;DHT22;26811;53.160;8.202;2023-02-28T06:57:14;3.30;99.90
41060;DHT22;26811;53.160;8.202;2023-02-28T07:02:15;3.40;99.90
41060;DHT22;26811;53.160;8.202;2023-02-28T07:07:15;3.40;99.90
41060;DHT22;26811;53.160;8.202;2023-02-28T07:12:16;3.50;99.90
41060;DHT22;26811;53.160;8.202;2023-02-28T07:17:16;3.50;99.90
41060;DHT22;26811;53.160;8.202;2023-02-28T07:22:17;3.60;99.90
41060;DHT22;26811;53.160;8.202;2023-02-28T07:27:17;3.60;99.90
41060;DHT22;26811;53.160;8.202;2023-02-28T07:32:25;3.60;99.90
41060;DHT22;26811;53.160;8.202;2023-02-28T07:37:26;3.80;99.90
41060;DHT22;26811;53.160;8.202;2023-02-28T07:42:26;4.20;99.90
41060;DHT22;26811;53.160;8.202;2023-02-28T07:47:29;4.30;99.90
41060;DHT22;26811;53.160;8.202;2023-02-28T07:52:30;4.10;99.90
41060;DHT22;26811;53.160;8.202;2023-02-28T07:57:30;4.00;99.90
41060;DHT22;26811;53.160;8.202;2023-02-28T08:02:31;4.00;99.90
41060;DHT22;26811;53.160;8.202;2023-02-28T08:07:32;4.00;99.90
41060;DHT22;26811;53.160;8.202;2023-02-28T08:12:33;4.00;99.90
41060;DHT22;26811;53.160;8.202;2023-02-28T08:17:34;4.20;99.90
41060;DHT22;26811;53.160;8.202;2023-02-28T08:22:34;5.30;99.90
41060;DHT22;26811;53.160;8.202;2023-02-28T08:27:36;6.60;99.90
41060;DHT22;26811;53.160;8.202;2023-02-28T08:32:36;7.70;99.90
41060;DHT22;26811;53.160;8.202;2023-02-28T08:37:37;8.60;99.90
41060;DHT22;26811;53.160;8.202;2023-02-28T08:42:38;9.20;99.90
41060;DHT22;26811;53.160;8.202;2023-02-28T08:47:38;9.50;98.70
41060;DHT22;26811;53.160;8.202;2023-02-28T08:52:39;9.80;97.50
41060;DHT22;26811;53.160;8.202;2023-02-28T08:57:42;9.80;97.20
41060;DHT22;26811;53.160;8.202;2023-02-28T09:02:42;9.90;96.90
41060;DHT22;26811;53.160;8.202;2023-02-28T09:07:43;9.70;96.50
41060;DHT22;26811;53.160;8.202;2023-02-28T09:12:46;9.70;95.80
41060;DHT22;26811;53.160;8.202;2023-02-28T09:17:47;9.50;95.80
41060;DHT22;26811;53.160;8.202;2023-02-28T09:22:48;9.50;95.50
41060;DHT22;26811;53.160;8.202;2023-02-28T09:27:48;9.30;95.70
41060;DHT22;26811;53.160;8.202;2023-02-28T09:32:49;9.20;95.10
41060;DHT22;26811;53.160;8.202;2023-02-28T09:37:53;9.10;95.00
41060;DHT22;26811;53.160;8.202;2023-02-28T09:42:55;9.30;96.10
41060;DHT22;26811;53.160;8.202;2023-02-28T09:48:00;9.30;94.70
41060;DHT22;26811;53.160;8.202;2023-02-28T09:53:26;9.30;94.10
41060;DHT22;26811;53.160;8.202;2023-02-28T09:58:32;9.10;95.20
41060;DHT22;26811;53.160;8.202;2023-02-28T10:03:45;9.20;94.30
41060;DHT22;26811;53.160;8.202;2023-02-28T10:09:01;9.30;96.50
41060;DHT22;26811;53.160;8.202;2023-02-28T10:14:05;9.40;96.00
41060;DHT22;26811;53.160;8.202;2023-02-28T10:19:18;9.30;94.80
41060;DHT22;26811;53.160;8.202;2023-02-28T10:29:28;9.20;93.20
41060;DHT22;26811;53.160;8.202;2023-02-28T10:34:31;8.90;93.60
41060;DHT22;26811;53.160;8.202;2023-02-28T10:39:44;8.20;94.20
41060;DHT22;26811;53.160;8.202;2023-02-28T10:44:45;7.80;95.00
41060;DHT22;26811;53.160;8.202;2023-02-28T10:49:48;7.50;96.40
41060;DHT22;26811;53.160;8.202;2023-02-28T10:54:49;7.70;98.30
41060;DHT22;26811;53.160;8.202;2023-02-28T11:00:05;8.50;96.20
41060;DHT22;26811;53.160;8.202;2023-02-28T11:05:32;9.10;94.10
41060;DHT22;26811;53.160;8.202;2023-02-28T11:10:33;9.10;93.50
41060;DHT22;26811;53.160;8.202;2023-02-28T11:15:36;9.10;92.90
41060;DHT22;26811;53.160;8.202;2023-02-28T11:20:36;9.00;93.70
41060;DHT22;26811;53.160;8.202;2023-02-28T11:25:38;9.20;94.60
41060;DHT22;26811;53.160;8.202;2023-02-28T11:30:41;9.30;93.50
41060;DHT22;26811;53.160;8.202;2023-02-28T11:35:42;9.30;92.10
41060;DHT22;26811;53.160;8.202;2023-02-28T11:40:58;9.00;91.90
41060;DHT22;26811;53.160;8.202;2023-02-28T11:46:36;9.20;93.20
41060;DHT22;26811;53.160;8.202;2023-02-28T11:51:50;9.30;91.50
41060;DHT22;26811;53.160;8.202;2023-02-28T11:56:58;8.70;91.60
41060;DHT22;26811;53.160;8.202;2023-02-28T12:02:08;8.70;92.90
41060;DHT22;26811;53.160;8.202;2023-02-28T12:23:23;8.80;90.80
41060;DHT22;26811;53.160;8.202;2023-02-28T12:28:33;8.70;92.30
41060;DHT22;26811;53.160;8.202;2023-02-28T12:33:42;8.60;91.90
41060;DHT22;26811;53.160;8.202;2023-02-28T12:39:08;8.80;92.20
41060;DHT22;26811;53.160;8.202;2023-02-28T12:44:54;8.80;91.30
41060;DHT22;26811;53.160;8.202;2023-02-28T12:50:07;8.80;92.20
41060;DHT22;26811;53.160;8.202;2023-02-28T12:55:23;8.60;91.00
41060;DHT22;26811;53.160;8.202;2023-02-28T13:00:36;8.60;91.30
41060;DHT22;26811;53.160;8.202;2023-02-28T13:06:02;8.70;92.40
41060;DHT22;26811;53.160;8.202;2023-02-28T13:11:06;8.50;91.10
41060;DHT22;26811;53.160;8.202;2023-02-28T13:16:08;8.20;91.00
41060;DHT22;26811;53.160;8.202;2023-02-28T13:21:22;8.20;91.70
41060;DHT22;26811;53.160;8.202;2023-02-28T13:37:33;8.30;91.70
41060;DHT22;26811;53.160;8.202;2023-02-28T13:42:47;8.40;89.90
41060;DHT22;26811;53.160;8.202;2023-02-28T13:48:00;8.30;90.60
41060;DHT22;26811;53.160;8.202;2023-02-28T14:08:19;8.30;87.40
41060;DHT22;26811;53.160;8.202;2023-02-28T14:18:41;8.20;87.30
41060;DHT22;26811;53.160;8.202;2023-02-28T14:29:22;8.00;89.50
41060;DHT22;26811;53.160;8.202;2023-02-28T14:34:35;8.00;90.30
41060;DHT22;26811;53.160;8.202;2023-02-28T14:39:41;8.00;90.90
41060;DHT22;26811;53.160;8.202;2023-02-28T14:44:42;8.10;91.70
41060;DHT22;26811;53.160;8.202;2023-02-28T14:49:44;8.00;89.60
41060;DHT22;26811;53.160;8.202;2023-02-28T14:54:46;7.90;90.70
41060;DHT22;26811;53.160;8.202;2023-02-28T15:00:17;7.60;91.40
41060;DHT22;26811;53.160;8.202;2023-02-28T15:05:32;7.60;91.50
41060;DHT22;26811;53.160;8.202;2023-02-28T15:10:33;7.40;91.90
41060;DHT22;26811;53.160;8.202;2023-02-28T15:20:44;7.20;92.90
41060;DHT22;26811;53.160;8.202;2023-02-28T15:25:45;7.00;93.70
41060;DHT22;26811;53.160;8.202;2023-02-28T15:31:28;6.80;93.70
41060;DHT22;26811;53.160;8.202;2023-02-28T15:36:30;6.60;93.70
41060;DHT22;26811;53.160;8.202;2023-02-28T15:41:37;6.60;95.10
41060;DHT22;26811;53.160;8.202;2023-02-28T15:46:44;6.40;95.30
41060;DHT22;26811;53.160;8.202;2023-02-28T15:51:45;6.20;95.70
41060;DHT22;26811;53.160;8.202;2023-02-28T15:56:49;6.00;96.30
41060;DHT22;26811;53.160;8.202;2023-02-28T16:02:15;6.00;96.10
41060;DHT22;26811;53.160;8.202;2023-02-28T16:07:18;6.10;96.40
41060;DHT22;26811;53.160;8.202;2023-02-28T16:12:19;5.90;97.00
41060;DHT22;26811;53.160;8.202;2023-02-28T16:17:23;5.70;97.50
41060;DHT22;26811;53.160;8.202;2023-02-28T16:22:24;5.60;97.40
41060;DHT22;26811;53.160;8.202;2023-02-28T16:27:32;5.50;98.10
41060;DHT22;26811;53.160;8.202;2023-02-28T16:32:35;5.40;98.10
41060;DHT22;26811;53.160;8.202;2023-02-28T16:37:36;5.20;98.80
41060;DHT22;26811;53.160;8.202;2023-02-28T16:42:38;5.10;96.70
41060;DHT22;26811;53.160;8.202;2023-02-28T16:47:38;5.30;96.30
41060;DHT22;26811;53.160;8.202;2023-02-28T16:52:39;5.30;96.50
41060;DHT22;26811;53.160;8.202;2023-02-28T16:57:40;5.20;96.60
41060;DHT22;26811;53.160;8.202;2023-02-28T17:02:41;5.20;96.70
41060;DHT22;26811;53.160;8.202;2023-02-28T17:07:42;5.10;97.20
41060;DHT22;26811;53.160;8.202;2023-02-28T17:12:43;4.90;97.40
41060;DHT22;26811;53.160;8.202;2023-02-28T17:17:45;4.80;97.80
41060;DHT22;26811;53.160;8.202;2023-02-28T17:22:46;4.70;99.00
41060;DHT22;26811;53.160;8.202;2023-02-28T17:27:47;4.40;99.90
41060;DHT22;26811;53.160;8.202;2023-02-28T17:32:48;4.10;99.90
41060;DHT22;26811;53.160;8.202;2023-02-28T17:37:48;3.70;99.90
41060;DHT22;26811;53.160;8.202;2023-02-28T17:42:49;3.50;99.90
41060;DHT22;26811;53.160;8.202;2023-02-28T17:47:52;3.30;99.90
41060;DHT22;26811;53.160;8.202;2023-02-28T17:52:52;3.10;99.90
41060;DHT22;26811;53.160;8.202;2023-02-28T17:57:53;2.90;99.90
41060;DHT22;26811;53.160;8.202;2023-02-28T18:02:53;2.90;99.90
41060;DHT22;26811;53.160;8.202;2023-02-28T18:07:54;2.70;99.90
41060;DHT22;26811;53.160;8.202;2023-02-28T18:12:55;2.70;99.90
41060;DHT22;26811;53.160;8.202;2023-02-28T18:17:55;2.50;99.90
41060;DHT22;26811;53.160;8.202;2023-02-28T18:22:56;2.40;99.90
41060;DHT22;26811;53.160;8.202;2023-02-28T18:27:56;2.30;99.90
41060;DHT22;26811;53.160;8.202;2023-02-28T18:33:02;2.20;99.90
41060;DHT22;26811;53.160;8.202;2023-02-28T18:38:04;2.20;99.90
41060;DHT22;26811;53.160;8.202;2023-02-28T18:43:05;2.10;99.90
41060;DHT22;26811;53.160;8.202;2023-02-28T18:48:06;2.00;99.90
41060;DHT22;26811;53.160;8.202;2023-02-28T18:53:06;1.80;99.90
41060;DHT22;26811;53.160;8.202;2023-02-28T18:58:07;1.80;99.90
41060;DHT22;26811;53.160;8.202;2023-02-28T19:03:08;1.70;99.90
41060;DHT22;26811;53.160;8.202;2023-02-28T19:08:09;1.60;99.90
41060;DHT22;26811;53.160;8.202;2023-02-28T19:13:09;1.50;99.90
41060;DHT22;26811;53.160;8.202;2023-02-28T19:18:10;1.40;99.90
41060;DHT22;26811;53.160;8.202;2023-02-28T19:23:10;1.40;99.90
41060;DHT22;26811;53.160;8.202;2023-02-28T19:28:12;1.30;99.90
41060;DHT22;26811;53.160;8.202;2023-02-28T19:33:14;1.20;99.90
41060;DHT22;26811;53.160;8.202;2023-02-28T19:38:15;1.10;99.90
41060;DHT22;26811;53.160;8.202;2023-02-28T19:43:16;1.10;99.90
41060;DHT22;26811;53.160;8.202;2023-02-28T19:48:16;1.00;99.90
41060;DHT22;26811;53.160;8.202;2023-02-28T19:53:17;1.00;99.90
41060;DHT22;26811;53.160;8.202;2023-02-28T19:58:18;0.80;99.90
41060;DHT22;26811;53.160;8.202;2023-02-28T20:03:18;0.80;99.90
41060;DHT22;26811;53.160;8.202;2023-02-28T20:08:19;0.70;99.90
41060;DHT22;26811;53.160;8.202;2023-02-28T20:13:20;0.70;99.90
41060;DHT22;26811;53.160;8.202;2023-02-28T20:18:20;0.70;99.90
41060;DHT22;26811;53.160;8.202;2023-02-28T20:23:21;0.60;99.90
41060;DHT22;26811;53.160;8.202;2023-02-28T20:28:21;0.60;99.90
41060;DHT22;26811;53.160;8.202;2023-02-28T20:33:22;0.50;99.90
41060;DHT22;26811;53.160;8.202;2023-02-28T20:38:22;0.50;99.90
41060;DHT22;26811;53.160;8.202;2023-02-28T20:43:23;0.40;99.90
41060;DHT22;26811;53.160;8.202;2023-02-28T20:48:24;0.40;99.90
41060;DHT22;26811;53.160;8.202;2023-02-28T20:53:26;0.30;99.90
41060;DHT22;26811;53.160;8.202;2023-02-28T20:58:29;0.30;99.90
41060;DHT22;26811;53.160;8.202;2023-02-28T21:03:30;0.20;99.90
41060;DHT22;26811;53.160;8.202;2023-02-28T21:08:33;0.20;99.90
41060;DHT22;26811;53.160;8.202;2023-02-28T21:13:33;0.20;99.90
41060;DHT22;26811;53.160;8.202;2023-02-28T21:18:35;0.20;99.90
41060;DHT22;26811;53.160;8.202;2023-02-28T21:23:36;0.10;99.90
41060;DHT22;26811;53.160;8.202;2023-02-28T21:28:37;0.10;99.90
41060;DHT22;26811;53.160;8.202;2023-02-28T21:33:43;0.10;99.90
41060;DHT22;26811;53.160;8.202;2023-02-28T21:38:46;0.10;99.90
41060;DHT22;26811;53.160;8.202;2023-02-28T21:43:47;0.10;99.90
41060;DHT22;26811;53.160;8.202;2023-02-28T21:48:48;0.00;99.90
41060;DHT22;26811;53.160;8.202;2023-02-28T21:53:49;0.00;99.90
41060;DHT22;26811;53.160;8.202;2023-02-28T21:58:50;0.00;99.90
41060;DHT22;26811;53.160;8.202;2023-02-28T22:03:51;0.00;99.90
41060;DHT22;26811;53.160;8.202;2023-02-28T22:08:54;-0.10;99.90
41060;DHT22;26811;53.160;8.202;2023-02-28T22:13:56;-0.10;99.90
41060;DHT22;26811;53.160;8.202;2023-02-28T22:18:57;-0.10;99.90
41060;DHT22;26811;53.160;8.202;2023-02-28T22:23:57;-0.20;99.90
41060;DHT22;26811;53.160;8.202;2023-02-28T22:28:58;-0.20;99.90
41060;DHT22;26811;53.160;8.202;2023-02-28T22:34:07;-0.30;99.90
41060;DHT22;26811;53.160;8.202;2023-02-28T22:39:08;-0.30;99.90
41060;DHT22;26811;53.160;8.202;2023-02-28T22:44:09;-0.40;99.90
41060;DHT22;26811;53.160;8.202;2023-02-28T22:49:10;-0.40;99.90
41060;DHT22;26811;53.160;8.202;2023-02-28T22:54:10;-0.30;99.90
41060;DHT22;26811;53.160;8.202;2023-02-28T22:59:12;-0.30;99.90
41060;DHT22;26811;53.160;8.202;2023-02-28T23:04:14;-0.30;99.90
41060;DHT22;26811;53.160;8.202;2023-02-28T23:09:17;-0.30;99.90
41060;DHT22;26811;53.160;8.202;2023-02-28T23:14:19;-0.40;99.90
41060;DHT22;26811;53.160;8.202;2023-02-28T23:19:25;-0.40;99.90
41060;DHT22;26811;53.160;8.202;2023-02-28T23:24:27;-0.50;99.90
41060;DHT22;26811;53.160;8.202;2023-02-28T23:29:28;-0.60;99.90
41060;DHT22;26811;53.160;8.202;2023-02-28T23:34:29;-0.60;99.90
41060;DHT22;26811;53.160;8.202;2023-02-28T23:39:30;-0.60;99.90
41060;DHT22;26811;53.160;8.202;2023-02-28T23:44:30;-0.70;99.90
41060;DHT22;26811;53.160;8.202;2023-02-28T23:49:31;-0.70;99.90
41060;DHT22;26811;53.160;8.202;2023-02-28T23:54:32;-0.80;99.90
41060;DHT22;26811;53.160;8.202;2023-02-28T23:59:33;-0.80;99.90
